Insider Transactions for L3HARRIS TECHNOLOGIES, INC. /DE/ (LHX)

Owner Relationship Date Transaction Cost # Shares Value($) Total Shares Form 4
GIRARD JAMES P Vice President, HR Jun 29, 2019 Option Exercise $189.13 3,699 699,592 6,701 Sep 11, 2019, 04:56 PM
DATTILO THOMAS A Director Sep 10, 2019 Buy $200.80 1,000 200,800 3,000 Sep 11, 2019, 04:44 PM
Brown William M Chairman and CEO Sep 10, 2019 Option Exercise $36.66 41,552 1,523,296 408,995 Sep 11, 2019, 04:41 PM
Brown William M Chairman and CEO Sep 09, 2019 Option Exercise $36.66 65,000 2,382,900 432,443 Sep 11, 2019, 04:41 PM
Brown William M Chairman and CEO Sep 09, 2019 Sale $209.86 65,000 13,640,680 396,574 Sep 11, 2019, 04:41 PM
Brown William M Chairman and CEO Sep 10, 2019 Sale $204.63 41,552 8,502,767 408,195 Sep 11, 2019, 04:41 PM
BAILEY SALLIE B Director Sep 10, 2019 Buy $200.00 700 140,000 1,192 Sep 11, 2019, 04:34 PM
MIKUEN SCOTT T Sr VP-General Counsel & Secy Sep 05, 2019 Option Exercise $60.78 56,500 3,434,313 106,678 Sep 09, 2019, 05:30 PM
MIKUEN SCOTT T Sr VP-General Counsel & Secy Sep 05, 2019 Sale $213.80 56,500 12,079,568 91,874 Sep 09, 2019, 05:30 PM
Brown William M Chairman and CEO Sep 05, 2019 Option Exercise $36.66 65,000 2,382,900 432,443 Sep 09, 2019, 05:29 PM
Brown William M Chairman and CEO Sep 06, 2019 Option Exercise $36.66 65,000 2,382,900 432,443 Sep 09, 2019, 05:29 PM
Brown William M Chairman and CEO Sep 05, 2019 Sale $213.39 65,000 13,870,035 414,564 Sep 09, 2019, 05:29 PM
Brown William M Chairman and CEO Sep 06, 2019 Sale $215.65 65,000 14,017,507 426,999 Sep 09, 2019, 05:29 PM
Brown William M Chairman and CEO Sep 03, 2019 Option Exercise $36.66 65,000 2,382,900 432,443 Sep 05, 2019, 05:10 PM
Brown William M Chairman and CEO Sep 04, 2019 Option Exercise $36.66 65,000 2,382,900 432,443 Sep 05, 2019, 05:10 PM
Brown William M Chairman and CEO Sep 03, 2019 Sale $209.31 65,000 13,605,150 409,783 Sep 05, 2019, 05:10 PM
Brown William M Chairman and CEO Sep 04, 2019 Sale $212.83 65,000 13,833,950 428,173 Sep 05, 2019, 05:10 PM
MEHNERT DANA A Segment President Sep 03, 2019 Option Exercise $74.79 73,150 5,471,235 138,385 Sep 05, 2019, 04:22 PM
MEHNERT DANA A Segment President Sep 03, 2019 Sale $209.42 73,150 15,319,073 120,738 Sep 05, 2019, 04:22 PM
MEHNERT DANA A Segment President Jun 29, 2019 Option Exercise $189.13 4,369 826,309 96,046 Sep 05, 2019, 04:20 PM
DATTILO THOMAS A Director Sep 03, 2019 Buy $209.19 1,000 209,190 2,000 Sep 05, 2019, 04:17 PM
CORCORAN THOMAS A Director Aug 22, 2019 Sale $212.56 2,894 615,149 21,666 Aug 23, 2019, 04:07 PM
Gautier Todd W. President, Aviation Systems Aug 19, 2019 Option Exercise $89.39 12,727 1,137,667 29,153 Aug 21, 2019, 04:36 PM
Gautier Todd W. President, Aviation Systems Aug 19, 2019 Sale $212.90 11,972 2,548,797 17,481 Aug 21, 2019, 04:36 PM
HAY LEWIS III Director Aug 05, 2019 Buy $203.34 9,800 1,992,732 15,028 Aug 07, 2019, 04:38 PM
Stackley Sean J Segment President Jun 29, 2019 Option Exercise $189.13 534 100,995 7,685 Jul 02, 2019, 05:34 PM
KUBASIK CHRISTOPHER E Vice Chair, President and COO Jun 29, 2019 Option Exercise $189.13 30,403 5,750,120 117,249 Jul 02, 2019, 05:31 PM
Gautier Todd W. Segment President Jun 29, 2019 Option Exercise $189.13 3,689 697,701 16,426 Jul 02, 2019, 05:28 PM
GIRARD JAMES P Vice President, HR Jun 29, 2019 Option Exercise $189.13 2,535 479,445 7,865 Jul 02, 2019, 05:15 PM
ZOISS EDWARD J Segment President Jun 29, 2019 Option Exercise $189.13 8,208 1,552,379 21,268 Jul 02, 2019, 03:15 PM
Taylor Todd A. VP, Principal Accting. Officer Jun 29, 2019 Option Exercise $189.13 1,550 293,152 9,089 Jul 02, 2019, 03:12 PM
MIKUEN SCOTT T Sr VP-General Counsel & Secy Jun 29, 2019 Option Exercise $189.13 10,732 2,029,743 65,985 Jul 02, 2019, 03:09 PM
MEHNERT DANA A Segment President Jun 29, 2019 Option Exercise $189.13 14,155 2,677,135 95,253 Jul 02, 2019, 03:07 PM
GHAI RAHUL Sr. VP & Chief Financial Off. Jun 29, 2019 Option Exercise $189.13 13,257 2,507,296 33,072 Jul 02, 2019, 03:04 PM
GATTLE WILLIAM H President, Space and Intel Sys Jun 29, 2019 Option Exercise $189.13 7,968 1,506,988 19,300 Jul 02, 2019, 03:02 PM
FOX SHELDON J SVP, Operations and IT Jun 29, 2019 Option Exercise $189.13 10,924 2,066,056 73,806 Jul 02, 2019, 03:00 PM
Brown William M Chairman and CEO Jun 29, 2019 Option Exercise $189.13 85,587 16,187,070 367,443 Jul 02, 2019, 02:55 PM
DUFFY ROBERT L SVP-Human Resources Jun 29, 2019 Option Exercise $189.13 11,551 2,184,641 41,777 Jul 02, 2019, 12:00 AM
GATTLE WILLIAM H President, Space and Intel Sys Feb 05, 2019 Sale $157.40 77 12,120 6,984 May 10, 2019, 04:44 PM
GATTLE WILLIAM H President, Space and Intel Sys May 02, 2019 Option Exercise $50.44 5,490 276,925 10,030 May 06, 2019, 04:25 PM
GATTLE WILLIAM H President, Space and Intel Sys May 02, 2019 Sale $178.71 5,131 916,961 6,956 May 06, 2019, 04:25 PM
DUFFY ROBERT L SVP-Human Resources May 02, 2019 Option Exercise $75.87 82,890 6,288,812 106,857 May 06, 2019, 04:09 PM
DUFFY ROBERT L SVP-Human Resources May 03, 2019 Option Exercise $77.54 9,124 707,475 33,091 May 06, 2019, 04:09 PM
DUFFY ROBERT L SVP-Human Resources May 02, 2019 Sale $178.63 82,890 14,806,418 102,030 May 06, 2019, 04:09 PM
DUFFY ROBERT L SVP-Human Resources May 03, 2019 Sale $179.99 9,124 1,642,236 32,791 May 06, 2019, 04:09 PM
DUFFY ROBERT L SVP-Human Resources Feb 08, 2019 Option Exercise $56.97 40,000 2,278,800 63,918 Feb 12, 2019, 03:23 PM
DUFFY ROBERT L SVP-Human Resources Feb 08, 2019 Sale $158.66 40,000 6,346,400 23,918 Feb 12, 2019, 03:23 PM
ZOISS EDWARD J President, Electronic Systems Sep 13, 2018 Option Exercise $48.70 28,150 1,371,014 32,868 Sep 14, 2018, 04:18 PM
ZOISS EDWARD J President, Electronic Systems Sep 13, 2018 Sale $162.80 26,311 4,283,464 30,357 Sep 14, 2018, 04:18 PM
Young Christopher D. President, Communication Sys. Sep 12, 2018 Sale $161.55 24,670 3,985,439 1,286 Sep 14, 2018, 04:16 PM
MIKUEN SCOTT T Sr VP-General Counsel & Secy Sep 12, 2018 Sale $160.75 3,903 627,407 47,243 Sep 13, 2018, 04:13 PM
Taylor Todd A. VP, Principal Accting. Officer Sep 04, 2018 Option Exercise $84.30 19,698 1,660,468 12,275 Sep 06, 2018, 04:22 PM
Taylor Todd A. VP, Principal Accting. Officer Sep 04, 2018 Sale $161.79 18,698 3,025,108 4,615 Sep 06, 2018, 04:22 PM
ZOISS EDWARD J President, Electronic Systems Aug 24, 2018 Option Exercise $163.23 1,267 206,812 4,718 Aug 28, 2018, 02:42 PM
Young Christopher D. President, Communication Sys. Aug 24, 2018 Option Exercise $163.23 1,971 321,726 25,956 Aug 28, 2018, 02:40 PM
Taylor Todd A. VP, Principal Accting. Officer Aug 24, 2018 Option Exercise $163.23 469 76,555 3,615 Aug 28, 2018, 02:37 PM
MEHNERT DANA A SVP, Chief Global Bus Dev Off Aug 24, 2018 Option Exercise $163.23 3,531 576,365 78,380 Aug 28, 2018, 02:34 PM
MIKUEN SCOTT T Sr VP-General Counsel & Secy Aug 24, 2018 Option Exercise $163.32 2,533 413,690 51,146 Aug 28, 2018, 02:28 PM
GHAI RAHUL Sr. VP & Chief Financial Off. Aug 24, 2018 Option Exercise $163.23 939 153,273 10,603 Aug 28, 2018, 02:26 PM
GATTLE WILLIAM H President, Space and Intel Sys Aug 24, 2018 Option Exercise $163.23 1,267 206,812 6,563 Aug 28, 2018, 02:17 PM
FOX SHELDON J SVP, Operations and IT Aug 24, 2018 Option Exercise $163.23 2,912 475,326 54,136 Aug 28, 2018, 02:15 PM
DUFFY ROBERT L SVP-Human Resources Aug 24, 2018 Option Exercise $163.23 2,533 413,462 23,918 Aug 28, 2018, 02:12 PM
Brown William M Chairman, President, and CEO Aug 25, 2018 Option Exercise $163.23 35,582 5,808,050 233,474 Aug 28, 2018, 02:10 PM
FOX SHELDON J SVP, Operations and IT Aug 15, 2018 Option Exercise $46.53 45,800 2,131,074 95,448 Aug 17, 2018, 04:15 PM
FOX SHELDON J SVP, Operations and IT Aug 15, 2018 Sale $163.13 45,800 7,471,272 60,348 Aug 17, 2018, 04:15 PM
FOX SHELDON J SVP, Operations and IT Jun 01, 2018 Option Exercise $152.69 346 52,831 49,470 Jun 04, 2018, 05:03 PM
Taylor Todd A. VP, Principal Accting. Officer Jun 01, 2018 Option Exercise $152.69 353 53,900 2,801 Jun 04, 2018, 04:50 PM
MIKUEN SCOTT T Sr VP-General Counsel & Secy Jun 01, 2018 Option Exercise $152.69 174 26,568 47,219 Jun 04, 2018, 04:45 PM
GHAI RAHUL Sr. VP & Chief Financial Off. Jun 01, 2018 Option Exercise $152.69 1,056 161,241 9,247 Jun 04, 2018, 04:43 PM
DUFFY ROBERT L SVP-Human Resources Jun 01, 2018 Option Exercise $152.69 1,236 188,725 19,999 Jun 04, 2018, 04:40 PM
Young Christopher D. President, Communication Sys. May 29, 2018 Option Exercise $150.86 18,526 2,794,832 23,875 May 30, 2018, 04:15 PM
GHAI RAHUL Sr. VP & Chief Financial Off. May 06, 2018 Option Exercise $149.84 2,055 307,921 10,303 May 07, 2018, 05:01 PM
Taylor Todd A. VP, Principal Accting. Officer May 06, 2018 Option Exercise $149.84 1,310 196,290 3,154 May 07, 2018, 03:34 PM
Young Christopher D. President, Communication Sys. Mar 05, 2018 Option Exercise $154.26 2,475 381,793 42,384 Apr 11, 2018, 04:17 PM
MEHNERT DANA A SVP, Chief Global Bus Dev Off Mar 05, 2018 Option Exercise $56.97 51,200 2,916,864 125,635 Mar 06, 2018, 04:13 PM
MEHNERT DANA A SVP, Chief Global Bus Dev Off Mar 05, 2018 Sale $153.19 51,200 7,843,510 115,135 Mar 06, 2018, 04:13 PM
MIKUEN SCOTT T Sr VP-General Counsel & Secy Mar 02, 2018 Option Exercise $46.53 20,000 930,600 67,346 Mar 06, 2018, 04:11 PM
MIKUEN SCOTT T Sr VP-General Counsel & Secy Mar 02, 2018 Sale $151.18 20,000 3,023,680 55,346 Mar 06, 2018, 04:11 PM
FOX SHELDON J SVP, Operations and IT Feb 15, 2018 Sale $156.00 8,682 1,354,428 53,724 Feb 20, 2018, 08:32 AM
MIKUEN SCOTT T Sr VP-General Counsel & Secy Dec 15, 2017 Option Exercise $144.09 435 62,679 47,334 Dec 18, 2017, 04:22 PM
FOX SHELDON J SVP, Operations and IT Dec 15, 2017 Option Exercise $144.09 869 125,214 58,289 Dec 18, 2017, 04:20 PM
MIKUEN SCOTT T Sr VP-General Counsel & Secy Sep 12, 2017 Option Exercise $46.53 13,600 632,808 61,349 Sep 13, 2017, 04:20 PM
MIKUEN SCOTT T Sr VP-General Counsel & Secy Sep 12, 2017 Sale $123.36 13,600 1,677,710 47,749 Sep 13, 2017, 04:20 PM
MIKUEN SCOTT T Sr VP-General Counsel & Secy Sep 08, 2017 Sale $121.70 4,387 533,911 47,749 Sep 12, 2017, 09:47 AM
ZOISS EDWARD J President, Electronic Systems Aug 25, 2017 Option Exercise $119.66 710 84,959 2,684 Aug 29, 2017, 04:27 PM
MIKUEN SCOTT T Sr VP-General Counsel & Secy Aug 25, 2017 Option Exercise $119.66 3,171 379,442 52,136 Aug 29, 2017, 04:21 PM
MEHNERT DANA A SVP, Chief Global Bus Dev Off Aug 25, 2017 Option Exercise $119.66 3,898 466,435 74,394 Aug 29, 2017, 04:19 PM
GATTLE WILLIAM H President, Space and Intel Sys Aug 25, 2017 Option Exercise $119.66 781 93,454 4,565 Aug 29, 2017, 04:15 PM
FOX SHELDON J SVP, Operations and IT Aug 25, 2017 Option Exercise $119.66 3,644 436,041 58,734 Aug 29, 2017, 04:13 PM
DUFFY ROBERT L SVP-Human Resources Aug 25, 2017 Option Exercise $119.66 3,171 379,442 21,204 Aug 29, 2017, 04:11 PM
Brown William M Chairman, President, and CEO Aug 25, 2017 Option Exercise $119.66 14,244 1,704,437 178,610 Aug 29, 2017, 04:04 PM
FOX SHELDON J SVP, Integration & Engineering Aug 21, 2017 Option Exercise $39.69 50,300 1,996,299 84,592 Aug 22, 2017, 05:06 PM
FOX SHELDON J SVP, Integration & Engineering Aug 21, 2017 Sale $118.24 50,300 5,947,472 59,592 Aug 22, 2017, 05:06 PM
Young Christopher D. President, Communication Sys. Aug 10, 2017 Sale $118.93 4,070 484,057 46,131 Aug 11, 2017, 03:53 PM
DUFFY ROBERT L SVP-Human Resources May 31, 2017 Option Exercise $46.53 33,600 1,563,408 50,311 Jun 02, 2017, 11:03 AM
DUFFY ROBERT L SVP-Human Resources May 31, 2017 Sale $112.01 33,600 3,763,498 44,351 Jun 02, 2017, 11:03 AM
GHAI RAHUL Sr. VP & Chief Financial Off. May 06, 2017 Option Exercise $110.72 2,141 237,052 12,326 May 08, 2017, 04:12 PM
MIKUEN SCOTT T Sr VP-General Counsel & Secy Mar 10, 2017 Option Exercise $42.87 20,600 883,122 68,313 Mar 14, 2017, 03:49 PM
MIKUEN SCOTT T Sr VP-General Counsel & Secy Mar 10, 2017 Sale $109.71 20,600 2,260,026 47,713 Mar 14, 2017, 03:49 PM
Young Christopher D. President, Communication Sys. Mar 05, 2017 Option Exercise $110.46 2,476 273,499 46,420 Mar 07, 2017, 01:19 PM
ALBAUGH JAMES F Director Feb 09, 2017 Buy $104.99 1,000 104,988 1,725 Feb 10, 2017, 08:52 AM
DUFFY ROBERT L SVP-Human Resources Feb 08, 2017 Option Exercise $42.39 17,000 720,630 37,761 Feb 10, 2017, 08:48 AM
DUFFY ROBERT L SVP-Human Resources Feb 08, 2017 Sale $105.51 21,050 2,220,925 31,761 Feb 10, 2017, 08:48 AM
MEHNERT DANA A SVP, Chief Global Bus Dev Off Feb 03, 2017 Option Exercise $42.46 99,400 4,220,210 170,090 Feb 07, 2017, 09:20 AM
MEHNERT DANA A SVP, Chief Global Bus Dev Off Feb 03, 2017 Sale $104.64 99,400 10,401,216 124,290 Feb 07, 2017, 09:20 AM
MIKUEN SCOTT T Sr VP-General Counsel & Secy Dec 15, 2016 Option Exercise $105.00 699 73,395 47,698 Dec 19, 2016, 01:54 PM
FOX SHELDON J SVP, Integration & Engineering Dec 15, 2016 Option Exercise $105.00 1,396 146,580 53,221 Dec 19, 2016, 01:52 PM
ZOISS EDWARD J President, Electronic Systems Nov 03, 2016 Sale $92.99 1,884 175,193 1,702 Nov 04, 2016, 11:32 AM
GATTLE WILLIAM H President, Space and Intel Sys Sep 06, 2016 Option Exercise $37.69 1,366 51,485 4,851 Sep 07, 2016, 04:26 PM
GATTLE WILLIAM H President, Space and Intel Sys Sep 06, 2016 Sale $93.75 1,366 128,063 3,485 Sep 07, 2016, 04:26 PM
FOX SHELDON J SVP, Integration & Engineering Aug 26, 2016 Option Exercise $90.84 7,059 641,240 54,127 Aug 30, 2016, 02:15 PM
DUFFY ROBERT L SVP-Human Resources Aug 26, 2016 Option Exercise $90.84 5,511 500,619 20,861 Aug 30, 2016, 02:12 PM
ZOISS EDWARD J President, Electronic Systems Aug 26, 2016 Option Exercise $90.84 1,363 123,815 3,586 Aug 30, 2016, 01:04 PM
MIKUEN SCOTT T Sr VP-General Counsel & Secy Aug 26, 2016 Option Exercise $90.84 5,511 500,619 48,372 Aug 30, 2016, 12:56 PM
MEHNERT DANA A SVP, Chief Global Bus Dev Off Aug 26, 2016 Option Exercise $90.84 8,678 788,309 70,640 Aug 30, 2016, 12:53 PM
GATTLE WILLIAM H President, Space and Intel Sys Aug 26, 2016 Option Exercise $90.84 1,363 123,815 3,485 Aug 30, 2016, 12:51 PM
D'ALESSANDRO CARL D President, Critical Networks Aug 26, 2016 Option Exercise $90.84 138 12,536 2,359 Aug 30, 2016, 12:43 PM
D'ALESSANDRO CARL D President, Critical Networks Aug 26, 2016 Option Exercise $90.84 1,363 123,815 10,081 Aug 30, 2016, 12:43 PM
Brown William M Chairman, President, and CEO Aug 27, 2016 Option Exercise $90.84 24,458 2,221,765 158,901 Aug 30, 2016, 12:35 PM
MIKUEN SCOTT T Sr VP-General Counsel & Secy Aug 23, 2016 Option Exercise $91.34 630 57,544 40,747 Aug 24, 2016, 04:01 PM
Brown William M Chairman, President, and CEO Aug 23, 2016 Option Exercise $91.34 1,469 134,178 125,057 Aug 24, 2016, 03:57 PM
FOX SHELDON J SVP, Integration & Engineering Aug 08, 2016 Sale $89.02 17,700 1,575,634 44,360 Aug 11, 2016, 04:36 PM
FOX SHELDON J SVP, Integration & Engineering Aug 08, 2016 Option Exercise $35.04 17,700 620,208 62,060 Aug 10, 2016, 01:55 PM
FOX SHELDON J SVP, Integration & Engineering Aug 08, 2016 Sale $88.02 17,700 1,557,934 44,360 Aug 10, 2016, 01:55 PM
MEHNERT DANA A SVP, Chief Global Bus Dev Off Aug 04, 2016 Option Exercise $42.87 27,000 1,157,490 89,492 Aug 08, 2016, 11:16 AM
MEHNERT DANA A SVP, Chief Global Bus Dev Off Aug 04, 2016 Sale $88.02 27,000 2,376,591 62,492 Aug 08, 2016, 11:16 AM
MIKUEN SCOTT T Sr VP-General Counsel & Secy Aug 02, 2016 Option Exercise $37.69 9,400 354,286 49,277 Aug 04, 2016, 11:48 AM
MIKUEN SCOTT T Sr VP-General Counsel & Secy Aug 02, 2016 Sale $88.00 9,400 827,200 39,877 Aug 04, 2016, 11:48 AM
MEHNERT DANA A SVP, Chief Global Bus Dev Off Jun 10, 2016 Option Exercise $42.87 100 4,287 62,565 Jun 13, 2016, 04:51 PM
MEHNERT DANA A SVP, Chief Global Bus Dev Off Jun 10, 2016 Sale $82.00 100 8,200 62,465 Jun 13, 2016, 04:51 PM
MEHNERT DANA A SVP, Chief Global Bus Dev Off Jun 08, 2016 Option Exercise $42.87 6,600 282,942 69,065 Jun 09, 2016, 04:30 PM
MEHNERT DANA A SVP, Chief Global Bus Dev Off Jun 08, 2016 Sale $82.03 6,600 541,369 64,865 Jun 09, 2016, 04:30 PM
GHAI RAHUL Sr. VP & Chief Financial Off. May 06, 2016 Option Exercise $74.59 2,643 197,141 14,467 May 10, 2016, 11:23 AM
Young Christopher D. President, Communication Sys. Mar 05, 2016 Option Exercise $81.15 2,476 200,927 46,383 Mar 08, 2016, 03:56 PM
MIKUEN SCOTT T Sr VP-General Counsel & Secy Nov 16, 2015 Option Exercise $37.69 8,800 331,672 48,610 Nov 17, 2015, 04:39 PM
MIKUEN SCOTT T Sr VP-General Counsel & Secy Nov 16, 2015 Sale $80.00 8,800 704,000 39,810 Nov 17, 2015, 04:39 PM
ZOISS EDWARD J President, Electronic Systems Aug 28, 2015 Option Exercise $77.54 683 52,960 1,702 Sep 01, 2015, 04:43 PM
MIKUEN SCOTT T Sr VP-General Counsel & Secy Aug 28, 2015 Option Exercise $77.54 4,399 341,098 39,786 Sep 01, 2015, 04:40 PM
MEHNERT DANA A SVP, Chief Global Bus Dev Off Aug 28, 2015 Option Exercise $77.54 8,390 650,561 62,377 Sep 01, 2015, 04:38 PM
GATTLE WILLIAM H President, Space and Intel Sys Aug 28, 2015 Option Exercise $77.54 655 50,789 1,601 Sep 01, 2015, 04:36 PM
FOX SHELDON J SVP, Integration & Engineering Aug 28, 2015 Option Exercise $77.54 5,814 450,818 43,437 Sep 01, 2015, 04:36 PM
DUFFY ROBERT L SVP-Human Resources Aug 28, 2015 Option Exercise $77.54 4,297 333,189 13,236 Sep 01, 2015, 04:35 PM
D'ALESSANDRO CARL D President, Critical Networks Aug 28, 2015 Option Exercise $77.54 198 15,353 2,025 Sep 01, 2015, 04:34 PM
D'ALESSANDRO CARL D President, Critical Networks Aug 28, 2015 Option Exercise $77.54 632 49,005 8,197 Sep 01, 2015, 04:34 PM
Brown William M Chairman, President, and CEO Aug 28, 2015 Option Exercise $77.54 23,102 1,791,329 123,026 Sep 01, 2015, 04:33 PM
Brown William M Chairman, President, and CEO May 29, 2015 Option Exercise $79.22 195 15,448 91,254 Sep 01, 2015, 04:33 PM
Brown William M Chairman, President, and CEO Jul 20, 2015 Sale $81.25 195 15,844 91,059 Sep 01, 2015, 04:33 PM
DUFFY ROBERT L SVP-Human Resources Aug 02, 2015 Option Exercise $82.94 602 49,930 7,290 Aug 03, 2015, 04:44 PM
FOX SHELDON J Group Pres. - Govt. Comms. Sys Jun 15, 2015 Option Exercise $48.96 11,891 582,183 47,127 Jun 16, 2015, 04:20 PM
FOX SHELDON J Group Pres. - Govt. Comms. Sys Jun 15, 2015 Sale $77.80 11,891 925,120 35,236 Jun 16, 2015, 04:20 PM
MEHNERT DANA A Group Pres., RF Communications Jun 11, 2015 Option Exercise $35.04 48,700 1,706,448 103,175 Jun 12, 2015, 04:08 PM
MEHNERT DANA A Group Pres., RF Communications Jun 11, 2015 Sale $78.67 48,700 3,831,229 54,475 Jun 12, 2015, 04:08 PM
MIKUEN SCOTT T Sr VP-General Counsel & Secy Jun 01, 2015 Option Exercise $79.70 1,318 105,045 30,541 Jun 03, 2015, 02:46 PM
LOPEZ MIGUEL A Sr. VP & Chief Financial Off. Jun 01, 2015 Option Exercise $79.70 791 63,043 1,094 Jun 03, 2015, 02:44 PM
FOX SHELDON J Group Pres. - Govt. Comms. Sys Jun 01, 2015 Option Exercise $79.70 791 63,043 28,961 Jun 03, 2015, 02:42 PM
DUFFY ROBERT L SVP-Human Resources Jun 01, 2015 Option Exercise $79.70 791 63,043 3,319 Jun 03, 2015, 02:29 PM
SCHWARTZ LEWIS A VP, Principal Accting. Officer Apr 01, 2015 Sale $78.50 500 39,250 16,359 Apr 03, 2015, 02:58 PM
MORRIS JAMES D Group Pres., Int. Network Sol. Feb 01, 2015 Option Exercise $67.13 8,243 553,353 17,916 Feb 03, 2015, 09:30 AM
SCHWARTZ LEWIS A VP, Principal Accting. Officer Jan 02, 2015 Sale $72.15 500 36,075 16,792 Jan 06, 2015, 03:28 PM
SCHWARTZ LEWIS A VP, Principal Accting. Officer Nov 21, 2014 Option Exercise $38.21 45,666 1,744,845 62,933 Nov 25, 2014, 03:34 PM
SCHWARTZ LEWIS A VP, Principal Accting. Officer Nov 25, 2014 Option Exercise $35.04 321 11,248 17,588 Nov 25, 2014, 03:34 PM
SCHWARTZ LEWIS A VP, Principal Accting. Officer Nov 24, 2014 Option Exercise $35.04 1,413 49,512 18,680 Nov 25, 2014, 03:34 PM
SCHWARTZ LEWIS A VP, Principal Accting. Officer Nov 24, 2014 Sale $72.00 1,413 101,736 17,267 Nov 25, 2014, 03:34 PM
SCHWARTZ LEWIS A VP, Principal Accting. Officer Nov 21, 2014 Sale $72.01 45,666 3,288,580 47,595 Nov 25, 2014, 03:34 PM
SCHWARTZ LEWIS A VP, Principal Accting. Officer Nov 25, 2014 Sale $72.00 321 23,112 17,267 Nov 25, 2014, 03:34 PM
MEHNERT DANA A Group Pres., RF Communications Nov 01, 2014 Option Exercise $69.60 12,893 897,353 54,418 Nov 03, 2014, 02:52 PM
RICKARD DAVID B Director Oct 01, 2014 Option Exercise $27.30 4,228 115,424 4,228 Oct 03, 2014, 04:23 PM
RICKARD DAVID B Director Oct 01, 2014 Sale $66.34 4,228 280,486 0 Oct 03, 2014, 04:23 PM
SCHWARTZ LEWIS A VP, Principal Accting. Officer Oct 01, 2014 Option Exercise $49.82 17,901 891,752 35,668 Oct 03, 2014, 02:49 PM
SCHWARTZ LEWIS A VP, Principal Accting. Officer Oct 01, 2014 Sale $66.23 18,401 1,218,753 17,767 Oct 03, 2014, 02:49 PM
MIKUEN SCOTT T Sr VP-General Counsel & Secy Aug 26, 2014 Option Exercise $71.13 4,195 298,390 28,652 Aug 27, 2014, 02:49 PM
SCHWARTZ LEWIS A VP, Principal Accting. Officer Aug 22, 2014 Option Exercise $71.02 1,456 103,405 17,745 Aug 26, 2014, 04:35 PM
MIKUEN SCOTT T Sr VP-General Counsel & Secy Aug 22, 2014 Option Exercise $71.02 2,573 182,734 22,847 Aug 26, 2014, 04:29 PM
MEHNERT DANA A Group Pres., RF Communications Aug 22, 2014 Option Exercise $71.02 5,161 366,534 42,285 Aug 26, 2014, 04:27 PM
FOX SHELDON J Group Pres. - Govt. Comms. Sys Aug 22, 2014 Option Exercise $71.02 2,844 201,981 27,349 Aug 26, 2014, 04:23 PM
Brown William M Chairman, President, and CEO Aug 23, 2014 Option Exercise $71.02 40,903 2,904,931 91,059 Aug 26, 2014, 04:20 PM
DUFFY ROBERT L SVP-Human Resources Aug 02, 2014 Option Exercise $68.44 602 41,201 2,225 Aug 04, 2014, 05:01 PM
MEHNERT DANA A Group Pres., RF Communications Aug 01, 2014 Option Exercise $51.36 33,770 1,734,476 71,209 Aug 04, 2014, 03:51 PM
MEHNERT DANA A Group Pres., RF Communications Aug 01, 2014 Sale $68.43 33,770 2,310,851 37,439 Aug 04, 2014, 03:51 PM
SCHWARTZ LEWIS A VP, Principal Accting. Officer Jul 01, 2014 Sale $76.03 500 38,015 16,131 Jul 03, 2014, 08:37 AM
Brown William M Chairman, President, and CEO Jul 01, 2014 Option Exercise $76.00 12,453 946,428 34,460 Jul 02, 2014, 03:46 PM
SCHWARTZ LEWIS A VP, Principal Accting. Officer Apr 01, 2014 Sale $73.25 500 36,625 16,175 Apr 02, 2014, 04:54 PM
HAY LEWIS III Director Mar 05, 2014 Option Exercise $27.30 4,228 115,424 8,456 Mar 06, 2014, 04:43 PM
HAY LEWIS III Director Mar 05, 2014 Sale $74.62 4,228 315,474 4,228 Mar 06, 2014, 04:43 PM
STOFFEL JAMES C Director Mar 05, 2014 Option Exercise $27.30 522 14,251 522 Mar 06, 2014, 04:40 PM
STOFFEL JAMES C Director Mar 05, 2014 Sale $74.50 522 38,889 22 Mar 06, 2014, 04:40 PM
MIKUEN SCOTT T Sr VP-General Counsel & Secy Feb 19, 2014 Option Exercise $37.69 10,000 376,900 29,248 Feb 20, 2014, 04:30 PM
MIKUEN SCOTT T Sr VP-General Counsel & Secy Feb 18, 2014 Option Exercise $52.11 20,716 1,079,489 30,399 Feb 20, 2014, 04:30 PM
MIKUEN SCOTT T Sr VP-General Counsel & Secy Feb 19, 2014 Sale $73.34 10,000 733,400 19,248 Feb 20, 2014, 04:30 PM
MIKUEN SCOTT T Sr VP-General Counsel & Secy Feb 18, 2014 Sale $72.20 20,716 1,495,678 19,248 Feb 20, 2014, 04:30 PM
FOX SHELDON J Group Pres. - Govt. Comms. Sys Feb 07, 2014 Option Exercise $55.78 9,724 542,405 32,893 Feb 10, 2014, 04:40 PM
FOX SHELDON J Group Pres. - Govt. Comms. Sys Feb 07, 2014 Sale $70.63 9,724 686,760 31,753 Feb 10, 2014, 04:40 PM
MORRIS JAMES D Group Pres., Int. Network Sol. Feb 01, 2014 Option Exercise $69.34 8,241 571,431 8,959 Feb 04, 2014, 04:55 PM
SCHWARTZ LEWIS A VP, Principal Accting. Officer Jan 02, 2014 Sale $69.63 500 34,815 16,618 Jan 03, 2014, 03:20 PM
STOFFEL JAMES C Director Dec 12, 2013 Option Exercise $27.30 206 5,624 206 Dec 16, 2013, 03:01 PM
STOFFEL JAMES C Director Dec 13, 2013 Option Exercise $27.30 3,500 95,550 3,500 Dec 16, 2013, 03:01 PM
STOFFEL JAMES C Director Dec 13, 2013 Sale $65.71 3,500 230,000 1,901 Dec 16, 2013, 03:01 PM
STOFFEL JAMES C Director Dec 12, 2013 Sale $65.60 206 13,514 0 Dec 16, 2013, 03:01 PM
KAUFMAN STEPHEN P Director Dec 02, 2013 Option Exercise $27.30 4,228 115,424 8,228 Dec 04, 2013, 11:20 AM
KAUFMAN STEPHEN P Director Dec 02, 2013 Sale $64.48 4,228 272,621 7,272 Dec 04, 2013, 11:20 AM
MCARTHUR GARY L Sr. VP & Chief Financial Off. Nov 05, 2013 Option Exercise $51.87 71,346 3,700,708 125,560 Nov 06, 2013, 01:56 PM
MCARTHUR GARY L Sr. VP & Chief Financial Off. Nov 05, 2013 Sale $62.19 71,346 4,437,008 54,214 Nov 06, 2013, 01:56 PM
SCHWARTZ LEWIS A VP, Principal Accting. Officer Nov 04, 2013 Option Exercise $52.09 22,830 1,189,121 40,424 Nov 05, 2013, 04:25 PM
SCHWARTZ LEWIS A VP, Principal Accting. Officer Nov 04, 2013 Sale $61.70 23,330 1,439,566 17,594 Nov 05, 2013, 04:25 PM
RICKARD DAVID B Director Sep 24, 2013 Option Exercise $16.86 4,228 71,284 4,228 Sep 25, 2013, 01:09 PM
RICKARD DAVID B Director Sep 24, 2013 Sale $57.79 4,228 244,345 4,137 Sep 25, 2013, 01:09 PM
MIKUEN SCOTT T Sr VP-General Counsel & Secy Sep 12, 2013 Option Exercise $35.04 11,067 387,788 30,267 Sep 13, 2013, 04:18 PM
MIKUEN SCOTT T Sr VP-General Counsel & Secy Sep 12, 2013 Sale $58.16 11,067 643,657 19,200 Sep 13, 2013, 04:18 PM
KAUFMAN STEPHEN P Director Sep 11, 2013 Option Exercise $16.86 1,057 17,821 5,057 Sep 13, 2013, 04:16 PM
KAUFMAN STEPHEN P Director Sep 11, 2013 Sale $57.82 1,057 61,116 4,000 Sep 13, 2013, 04:16 PM
MIKUEN SCOTT T Sr VP-General Counsel & Secy Aug 23, 2013 Option Exercise $56.97 888 50,589 18,682 Aug 27, 2013, 04:37 PM
MIKUEN SCOTT T Sr VP-General Counsel & Secy Aug 26, 2013 Option Exercise $57.02 378 21,554 19,204 Aug 27, 2013, 04:37 PM
MCARTHUR GARY L Sr. VP & Chief Financial Off. Aug 26, 2013 Option Exercise $57.02 756 43,107 54,198 Aug 27, 2013, 04:32 PM
MCARTHUR GARY L Sr. VP & Chief Financial Off. Aug 23, 2013 Option Exercise $56.97 1,993 113,541 53,154 Aug 27, 2013, 04:32 PM
Brown William M President and CEO Aug 23, 2013 Option Exercise $56.97 12,453 709,447 17,230 Aug 27, 2013, 04:25 PM
SCHWARTZ LEWIS A VP, Principal Accting. Officer Aug 23, 2013 Option Exercise $56.97 981 55,888 17,572 Aug 27, 2013, 03:20 PM
MEHNERT DANA A Group Pres., RF Communications Aug 23, 2013 Option Exercise $56.97 3,064 174,556 37,335 Aug 27, 2013, 03:16 PM
FOX SHELDON J Group Pres. - Govt. Comms. Sys Aug 23, 2013 Option Exercise $56.97 1,432 81,581 22,876 Aug 27, 2013, 03:14 PM
MEHNERT DANA A Group Pres., RF Communications Aug 02, 2013 Option Exercise $41.46 6,183 256,347 50,041 Aug 05, 2013, 03:50 PM
MEHNERT DANA A Group Pres., RF Communications Aug 02, 2013 Sale $56.70 6,183 350,583 47,571 Aug 05, 2013, 03:50 PM
DUFFY ROBERT L SVP-Human Resources Aug 02, 2013 Option Exercise $57.12 602 34,386 1,394 Aug 05, 2013, 03:49 PM
SCHWARTZ LEWIS A VP, Principal Accting. Officer Jul 01, 2013 Sale $49.68 500 24,840 19,915 Jul 02, 2013, 02:40 PM
HAY LEWIS III Director May 16, 2013 Option Exercise $16.86 4,228 71,284 8,456 May 20, 2013, 11:31 AM
HAY LEWIS III Director May 16, 2013 Sale $50.00 4,228 211,400 4,228 May 20, 2013, 11:31 AM
FOX SHELDON J Group Pres. - Govt. Comms. Sys Apr 01, 2013 Option Exercise $16.66 2,342 39,018 28,494 Apr 03, 2013, 03:49 PM
FOX SHELDON J Group Pres. - Govt. Comms. Sys Apr 01, 2013 Sale $46.17 2,342 108,139 28,252 Apr 03, 2013, 03:49 PM
SCHWARTZ LEWIS A VP, Principal Accting. Officer Apr 01, 2013 Sale $46.29 500 23,145 20,332 Apr 03, 2013, 03:41 PM
DATTILO THOMAS A Director Feb 11, 2013 Option Exercise $25.21 5,285 133,245 5,285 Feb 13, 2013, 09:53 AM
DATTILO THOMAS A Director Feb 11, 2013 Sale $46.40 5,285 245,201 5,085 Feb 13, 2013, 09:53 AM
SCHWARTZ LEWIS A VP, Principal Accting. Officer Jan 02, 2013 Sale $49.87 500 24,935 20,751 Jan 04, 2013, 02:33 PM
FOX SHELDON J Group Pres. - Govt. Comms. Sys Jan 02, 2013 Option Exercise $16.66 4,000 66,640 29,993 Jan 04, 2013, 02:29 PM
FOX SHELDON J Group Pres. - Govt. Comms. Sys Jan 02, 2013 Sale $50.01 4,000 200,024 29,693 Jan 04, 2013, 02:29 PM
FOX SHELDON J Group Pres. - Govt. Comms. Sys Dec 19, 2012 Option Exercise $41.46 2,976 123,385 28,820 Dec 21, 2012, 11:00 AM
FOX SHELDON J Group Pres. - Govt. Comms. Sys Dec 19, 2012 Sale $50.00 2,976 148,800 25,844 Dec 21, 2012, 11:00 AM
MIKUEN SCOTT T VP-General Counsel & Secretary Dec 19, 2012 Option Exercise $39.22 15,891 623,319 38,972 Dec 21, 2012, 10:58 AM
MIKUEN SCOTT T VP-General Counsel & Secretary Dec 19, 2012 Sale $50.00 15,891 794,550 23,081 Dec 21, 2012, 10:58 AM
KATEN KAREN L Director Dec 10, 2012 Option Exercise $22.08 8,456 186,708 18,456 Dec 12, 2012, 11:34 AM
STOFFEL JAMES C Director Dec 10, 2012 Option Exercise $16.13 8,456 136,395 8,456 Dec 12, 2012, 11:32 AM
STOFFEL JAMES C Director Dec 10, 2012 Sale $49.00 8,456 414,344 0 Dec 12, 2012, 11:32 AM
KENNE LESLIE F Director Dec 10, 2012 Option Exercise $24.97 8,456 211,146 8,456 Dec 12, 2012, 11:30 AM
KENNE LESLIE F Director Dec 10, 2012 Sale $49.00 8,456 414,333 7,856 Dec 12, 2012, 11:30 AM
PEARSON DANIEL R Exec. VP and COO Nov 07, 2012 Option Exercise $49.25 64,712 3,187,066 81,246 Nov 09, 2012, 11:55 AM
PEARSON DANIEL R Exec. VP and COO Nov 07, 2012 Option Exercise $37.81 75,917 2,870,360 103,217 Nov 09, 2012, 11:55 AM
SCHWARTZ LEWIS A VP, Principal Accting. Officer Nov 01, 2012 Option Exercise $41.46 7,716 319,905 28,912 Nov 02, 2012, 09:02 AM
SCHWARTZ LEWIS A VP, Principal Accting. Officer Nov 01, 2012 Sale $45.79 7,716 353,316 21,196 Nov 02, 2012, 09:02 AM
MCARTHUR GARY L Sr. VP & Chief Financial Off. Sep 14, 2012 Option Exercise $41.46 32,767 1,358,520 98,505 Sep 18, 2012, 04:49 PM
MCARTHUR GARY L Sr. VP & Chief Financial Off. Sep 14, 2012 Sale $50.03 32,767 1,639,287 65,738 Sep 18, 2012, 04:49 PM
SCHWARTZ LEWIS A VP, Principal Accting. Officer Aug 28, 2012 Option Exercise $47.28 1,823 86,191 21,196 Aug 30, 2012, 12:06 PM
PEARSON DANIEL R Exec. VP and COO Aug 28, 2012 Option Exercise $47.28 1,823 86,191 69,550 Aug 30, 2012, 12:04 PM
MEHNERT DANA A Group Pres., RF Communications Aug 28, 2012 Option Exercise $47.28 4,147 196,070 43,726 Aug 30, 2012, 12:00 PM
FOX SHELDON J Group Pres. - Govt. Comms. Sys Aug 28, 2012 Option Exercise $47.28 2,187 103,401 25,702 Aug 30, 2012, 11:57 AM
SCHWARTZ LEWIS A VP, Principal Accting. Officer Aug 24, 2012 Option Exercise $46.53 2,324 108,136 23,019 Aug 28, 2012, 04:41 PM
PEARSON DANIEL R Exec. VP and COO Aug 26, 2012 Option Exercise $46.53 438 20,380 71,373 Aug 28, 2012, 04:38 PM
PEARSON DANIEL R Exec. VP and COO Aug 24, 2012 Option Exercise $46.53 5,067 235,768 70,611 Aug 28, 2012, 04:38 PM
MIKUEN SCOTT T VP-General Counsel & Secretary Aug 24, 2012 Option Exercise $46.53 1,677 78,031 23,050 Aug 28, 2012, 04:35 PM
MEHNERT DANA A Group Pres., RF Communications Aug 24, 2012 Option Exercise $46.53 7,717 359,072 47,873 Aug 28, 2012, 04:32 PM
MCARTHUR GARY L Sr. VP & Chief Financial Off. Aug 24, 2012 Option Exercise $46.53 6,124 284,950 65,738 Aug 28, 2012, 04:30 PM
FOX SHELDON J Group Pres. - Govt. Comms. Sys Aug 24, 2012 Option Exercise $46.53 2,233 103,901 27,889 Aug 28, 2012, 04:28 PM
RICKARD DAVID B Director Aug 22, 2012 Option Exercise $12.64 4,228 53,442 4,228 Aug 24, 2012, 11:56 AM
RICKARD DAVID B Director Aug 22, 2012 Sale $46.12 4,228 194,987 3,351 Aug 24, 2012, 11:56 AM
FOX SHELDON J Group Pres. - Govt. Comms. Sys Aug 20, 2012 Option Exercise $41.46 4,000 165,840 32,897 Aug 22, 2012, 11:29 AM
FOX SHELDON J Group Pres. - Govt. Comms. Sys Aug 20, 2012 Sale $46.44 4,000 185,778 32,386 Aug 22, 2012, 11:29 AM
MEHNERT DANA A Group Pres., RF Communications Aug 14, 2012 Option Exercise $35.19 2,351 82,732 54,591 Aug 15, 2012, 02:19 PM
MEHNERT DANA A Group Pres., RF Communications Aug 14, 2012 Sale $45.60 2,351 107,205 52,991 Aug 15, 2012, 02:19 PM
SCHWARTZ LEWIS A VP, Principal Accting. Officer Aug 06, 2012 Sale $43.34 500 21,670 24,068 Aug 07, 2012, 03:16 PM
SHUMAN JEFFREY S Sr. VP & Chief HR Officer Jul 02, 2012 Option Exercise $35.31 27,482 970,389 82,602 Jul 05, 2012, 02:24 PM
SHUMAN JEFFREY S Sr. VP & Chief HR Officer Jul 02, 2012 Sale $41.42 27,482 1,138,304 55,120 Jul 05, 2012, 02:24 PM
SHUMAN JEFFREY S Sr. VP & Chief HR Officer May 17, 2012 Sale $38.94 19,890 774,556 74,189 May 21, 2012, 03:09 PM
MIKUEN SCOTT T VP-General Counsel & Secretary May 07, 2012 Option Exercise $35.19 9,513 334,762 34,216 May 08, 2012, 04:26 PM
MIKUEN SCOTT T VP-General Counsel & Secretary May 07, 2012 Sale $40.75 9,513 387,655 24,703 May 08, 2012, 04:26 PM
SCHWARTZ LEWIS A VP, Principal Accting. Officer May 03, 2012 Sale $42.50 500 21,250 24,483 May 03, 2012, 04:32 PM
MCARTHUR GARY L Sr. VP & Chief Financial Off. Mar 14, 2012 Sale $43.75 12,000 525,000 71,826 Mar 16, 2012, 12:15 PM
FOX SHELDON J Group Pres. - Govt. Comms. Sys Mar 08, 2012 Option Exercise $35.19 2,853 100,397 31,579 Mar 12, 2012, 10:58 AM
FOX SHELDON J Group Pres. - Govt. Comms. Sys Mar 08, 2012 Sale $43.25 2,853 123,397 30,826 Mar 12, 2012, 10:58 AM
MCARTHUR GARY L Sr. VP & Chief Financial Off. Mar 02, 2012 Option Exercise $43.93 18,468 811,299 85,360 Mar 06, 2012, 04:03 PM
MCARTHUR GARY L Sr. VP & Chief Financial Off. Mar 02, 2012 Option Exercise $35.19 21,140 743,917 102,294 Mar 06, 2012, 04:03 PM
SCHWARTZ LEWIS A VP, Principal Accting. Officer Feb 08, 2012 Option Exercise $35.19 5,919 208,290 30,817 Feb 09, 2012, 04:57 PM
SCHWARTZ LEWIS A VP, Principal Accting. Officer Feb 08, 2012 Sale $42.50 6,419 272,808 24,898 Feb 09, 2012, 04:57 PM
HAY LEWIS III Director Jan 10, 2012 Option Exercise $12.64 4,228 53,442 4,228 Jan 11, 2012, 03:47 PM
HAY LEWIS III Director Dec 13, 2011 Option Exercise $15.72 4,228 66,464 4,228 Dec 15, 2011, 11:02 AM
HAY LEWIS III Director Dec 13, 2011 Sale $35.43 4,228 149,798 0 Dec 15, 2011, 11:02 AM
RICKARD DAVID B Director Nov 01, 2011 Sale $36.80 4,228 155,590 0 Nov 02, 2011, 01:37 PM
RICKARD DAVID B Director Oct 12, 2011 Option Exercise $15.92 4,228 67,310 4,228 Oct 14, 2011, 10:42 AM
SCHWARTZ LEWIS A VP, Principal Accting. Officer Aug 26, 2011 Option Exercise $37.69 1,375 51,824 25,350 Aug 30, 2011, 04:49 PM
PEARSON DANIEL R Exec. VP and COO Aug 26, 2011 Option Exercise $37.69 3,791 142,883 75,676 Aug 30, 2011, 04:20 PM
MIKUEN SCOTT T VP-General Counsel & Secretary Aug 26, 2011 Option Exercise $37.69 1,256 47,339 24,630 Aug 30, 2011, 04:14 PM
MEHNERT DANA A Group Pres., RF Communications Aug 26, 2011 Option Exercise $37.69 3,125 117,781 52,119 Aug 30, 2011, 04:11 PM
LANCE HOWARD L Chairman, President, and CEO Aug 26, 2011 Option Exercise $37.69 20,660 778,675 353,319 Aug 30, 2011, 04:03 PM
FOX SHELDON J Group Pres. - Govt. Comms. Sys Aug 26, 2011 Option Exercise $37.69 1,327 50,015 28,564 Aug 30, 2011, 03:58 PM
SHUMAN JEFFREY S VP-Human Resources Aug 26, 2011 Option Exercise $37.69 3,554 133,950 74,023 Aug 30, 2011, 03:50 PM
MCARTHUR GARY L Sr. VP & Chief Financial Off. Aug 26, 2011 Option Exercise $37.69 4,597 173,261 84,717 Aug 30, 2011, 03:47 PM
SHUMAN JEFFREY S VP-Human Resources Aug 22, 2011 Option Exercise $34.85 2,916 101,623 75,327 Aug 24, 2011, 04:12 PM
MCARTHUR GARY L Sr. VP & Chief Financial Off. Aug 22, 2011 Option Exercise $34.85 3,645 127,028 86,404 Aug 24, 2011, 03:22 PM
PEARSON DANIEL R Exec. VP and COO Aug 22, 2011 Option Exercise $34.85 3,281 114,343 77,067 Aug 24, 2011, 01:19 PM
MIKUEN SCOTT T VP-General Counsel & Secretary Aug 08, 2011 Option Exercise $22.71 1,585 35,995 26,676 Aug 10, 2011, 11:54 AM
MIKUEN SCOTT T VP-General Counsel & Secretary Aug 08, 2011 Sale $36.47 1,585 57,805 25,091 Aug 10, 2011, 11:54 AM
FOX SHELDON J Group Pres. - Govt. Comms. Sys May 20, 2011 Option Exercise $22.71 4,650 105,601 33,654 May 23, 2011, 05:19 PM
FOX SHELDON J Group Pres. - Govt. Comms. Sys May 20, 2011 Sale $49.48 4,650 230,097 29,974 May 23, 2011, 05:19 PM
SCHWARTZ LEWIS A VP, Principal Accting. Officer May 09, 2011 Sale $49.00 503 24,647 25,783 May 10, 2011, 01:58 PM
SCHWARTZ LEWIS A VP, Principal Accting. Officer Feb 09, 2011 Sale $49.00 2,000 98,000 26,223 Feb 10, 2011, 03:26 PM
PEARSON DANIEL R Exec. VP and COO Dec 13, 2010 Option Exercise $35.11 30,574 1,073,374 110,921 Dec 15, 2010, 04:26 PM
PEARSON DANIEL R Exec. VP and COO Dec 13, 2010 Sale $45.96 30,574 1,405,132 80,347 Dec 15, 2010, 04:26 PM
LANCE HOWARD L Chairman, President, and CEO Sep 09, 2010 Sale $43.01 50,000 2,150,500 360,899 Sep 10, 2010, 04:30 PM
LANCE HOWARD L Chairman, President, and CEO Sep 09, 2010 Sale $43.01 50,000 2,150,500 360,899 Sep 10, 2010, 04:30 PM
SHUMAN JEFFREY S VP-Human Resources Aug 27, 2010 Option Exercise $42.87 2,460 105,460 77,387 Aug 31, 2010, 04:16 PM
SHUMAN JEFFREY S VP-Human Resources Aug 27, 2010 Option Exercise $42.87 2,460 105,460 77,387 Aug 31, 2010, 04:16 PM
SCHWARTZ LEWIS A VP, Principal Accting. Officer Aug 27, 2010 Option Exercise $42.87 911 39,055 28,189 Aug 31, 2010, 04:08 PM
PEARSON DANIEL R Exec. VP and COO Aug 27, 2010 Option Exercise $42.87 1,914 82,053 80,347 Aug 31, 2010, 04:06 PM
MEHNERT DANA A Group Pres., RF Communications Aug 27, 2010 Option Exercise $42.87 1,300 55,731 53,597 Aug 31, 2010, 04:04 PM
MEHNERT DANA A Group Pres., RF Communications Aug 27, 2010 Option Exercise $42.87 1,300 55,731 53,597 Aug 31, 2010, 04:04 PM
MCARTHUR GARY L Sr. VP & Chief Financial Off. Aug 27, 2010 Option Exercise $42.87 2,643 113,305 92,696 Aug 31, 2010, 04:02 PM
MCARTHUR GARY L Sr. VP & Chief Financial Off. Aug 27, 2010 Option Exercise $42.87 2,643 113,305 92,696 Aug 31, 2010, 04:02 PM
LANCE HOWARD L Chairman, President, and CEO Aug 28, 2010 Option Exercise $42.87 13,942 597,694 361,099 Aug 31, 2010, 04:01 PM
LANCE HOWARD L Chairman, President, and CEO Aug 28, 2010 Option Exercise $42.87 13,942 597,694 361,099 Aug 31, 2010, 04:01 PM
HENRY ROBERT K Exec. Vice President Aug 27, 2010 Option Exercise $42.87 4,465 191,415 60,906 Aug 31, 2010, 03:59 PM
HENRY ROBERT K Exec. Vice President Aug 27, 2010 Option Exercise $42.87 4,465 191,415 60,906 Aug 31, 2010, 03:59 PM
FOX SHELDON J Group Pres. - Govt. Comms. Sys Aug 27, 2010 Option Exercise $42.87 843 36,139 28,861 Aug 31, 2010, 03:57 PM
FOX SHELDON J Group Pres. - Govt. Comms. Sys Aug 27, 2010 Option Exercise $42.87 843 36,139 28,861 Aug 31, 2010, 03:57 PM
CAVALLUCCI EUGENE S VP - General Counsel Aug 27, 2010 Option Exercise $42.87 2,050 87,883 37,850 Aug 31, 2010, 03:56 PM
CAVALLUCCI EUGENE S VP - General Counsel Aug 27, 2010 Option Exercise $42.87 2,050 87,883 37,850 Aug 31, 2010, 03:56 PM
MEHNERT DANA A Group Pres., RF Communications Aug 24, 2010 Option Exercise $42.10 1,386 58,351 44,934 Aug 26, 2010, 11:30 AM
MEHNERT DANA A Group Pres., RF Communications Aug 24, 2010 Option Exercise $42.10 1,386 58,351 44,934 Aug 26, 2010, 11:30 AM
SCHWARTZ LEWIS A VP, Principal Accting. Officer Aug 24, 2010 Option Exercise $42.10 1,093 46,015 24,900 Aug 26, 2010, 10:57 AM
SCHWARTZ LEWIS A VP, Principal Accting. Officer Aug 24, 2010 Option Exercise $42.10 1,093 46,015 24,900 Aug 26, 2010, 10:57 AM
MCARTHUR GARY L Sr. VP & Chief Financial Off. Aug 24, 2010 Option Exercise $42.10 2,187 92,073 81,089 Aug 26, 2010, 10:53 AM
MCARTHUR GARY L Sr. VP & Chief Financial Off. Aug 24, 2010 Option Exercise $42.10 2,187 92,073 81,089 Aug 26, 2010, 10:53 AM
KATEN KAREN L Director Aug 11, 2010 Option Exercise $14.29 12,684 181,254 22,684 Aug 13, 2010, 08:45 AM
KATEN KAREN L Director Aug 11, 2010 Sale $44.58 12,684 565,471 10,000 Aug 13, 2010, 08:45 AM

Desktop Version

Owner Relationship Date Transaction Value($)
GIRARD JAMES P Vice President, HR Jun 29, 2019 Option Exercise 699,592
DATTILO THOMAS A Director Sep 10, 2019 Buy 200,800
Brown William M Chairman and CEO Sep 10, 2019 Option Exercise 1,523,296
Brown William M Chairman and CEO Sep 09, 2019 Option Exercise 2,382,900
Brown William M Chairman and CEO Sep 09, 2019 Sale 13,640,680
Brown William M Chairman and CEO Sep 10, 2019 Sale 8,502,767
BAILEY SALLIE B Director Sep 10, 2019 Buy 140,000
MIKUEN SCOTT T Sr VP-General Counsel & Secy Sep 05, 2019 Option Exercise 3,434,313
MIKUEN SCOTT T Sr VP-General Counsel & Secy Sep 05, 2019 Sale 12,079,568
Brown William M Chairman and CEO Sep 05, 2019 Option Exercise 2,382,900
Brown William M Chairman and CEO Sep 06, 2019 Option Exercise 2,382,900
Brown William M Chairman and CEO Sep 05, 2019 Sale 13,870,035
Brown William M Chairman and CEO Sep 06, 2019 Sale 14,017,507
Brown William M Chairman and CEO Sep 03, 2019 Option Exercise 2,382,900
Brown William M Chairman and CEO Sep 04, 2019 Option Exercise 2,382,900
Brown William M Chairman and CEO Sep 03, 2019 Sale 13,605,150
Brown William M Chairman and CEO Sep 04, 2019 Sale 13,833,950
MEHNERT DANA A Segment President Sep 03, 2019 Option Exercise 5,471,235
MEHNERT DANA A Segment President Sep 03, 2019 Sale 15,319,073
MEHNERT DANA A Segment President Jun 29, 2019 Option Exercise 826,309
DATTILO THOMAS A Director Sep 03, 2019 Buy 209,190
CORCORAN THOMAS A Director Aug 22, 2019 Sale 615,149
Gautier Todd W. President, Aviation Systems Aug 19, 2019 Option Exercise 1,137,667
Gautier Todd W. President, Aviation Systems Aug 19, 2019 Sale 2,548,797
HAY LEWIS III Director Aug 05, 2019 Buy 1,992,732
Stackley Sean J Segment President Jun 29, 2019 Option Exercise 100,995
KUBASIK CHRISTOPHER E Vice Chair, President and COO Jun 29, 2019 Option Exercise 5,750,120
Gautier Todd W. Segment President Jun 29, 2019 Option Exercise 697,701
GIRARD JAMES P Vice President, HR Jun 29, 2019 Option Exercise 479,445
ZOISS EDWARD J Segment President Jun 29, 2019 Option Exercise 1,552,379
Taylor Todd A. VP, Principal Accting. Officer Jun 29, 2019 Option Exercise 293,152
MIKUEN SCOTT T Sr VP-General Counsel & Secy Jun 29, 2019 Option Exercise 2,029,743
MEHNERT DANA A Segment President Jun 29, 2019 Option Exercise 2,677,135
GHAI RAHUL Sr. VP & Chief Financial Off. Jun 29, 2019 Option Exercise 2,507,296
GATTLE WILLIAM H President, Space and Intel Sys Jun 29, 2019 Option Exercise 1,506,988
FOX SHELDON J SVP, Operations and IT Jun 29, 2019 Option Exercise 2,066,056
Brown William M Chairman and CEO Jun 29, 2019 Option Exercise 16,187,070
DUFFY ROBERT L SVP-Human Resources Jun 29, 2019 Option Exercise 2,184,641
GATTLE WILLIAM H President, Space and Intel Sys Feb 05, 2019 Sale 12,120
GATTLE WILLIAM H President, Space and Intel Sys May 02, 2019 Option Exercise 276,925
GATTLE WILLIAM H President, Space and Intel Sys May 02, 2019 Sale 916,961
DUFFY ROBERT L SVP-Human Resources May 02, 2019 Option Exercise 6,288,812
DUFFY ROBERT L SVP-Human Resources May 03, 2019 Option Exercise 707,475
DUFFY ROBERT L SVP-Human Resources May 02, 2019 Sale 14,806,418
DUFFY ROBERT L SVP-Human Resources May 03, 2019 Sale 1,642,236
DUFFY ROBERT L SVP-Human Resources Feb 08, 2019 Option Exercise 2,278,800
DUFFY ROBERT L SVP-Human Resources Feb 08, 2019 Sale 6,346,400
ZOISS EDWARD J President, Electronic Systems Sep 13, 2018 Option Exercise 1,371,014
ZOISS EDWARD J President, Electronic Systems Sep 13, 2018 Sale 4,283,464
Young Christopher D. President, Communication Sys. Sep 12, 2018 Sale 3,985,439
MIKUEN SCOTT T Sr VP-General Counsel & Secy Sep 12, 2018 Sale 627,407
Taylor Todd A. VP, Principal Accting. Officer Sep 04, 2018 Option Exercise 1,660,468
Taylor Todd A. VP, Principal Accting. Officer Sep 04, 2018 Sale 3,025,108
ZOISS EDWARD J President, Electronic Systems Aug 24, 2018 Option Exercise 206,812
Young Christopher D. President, Communication Sys. Aug 24, 2018 Option Exercise 321,726
Taylor Todd A. VP, Principal Accting. Officer Aug 24, 2018 Option Exercise 76,555
MEHNERT DANA A SVP, Chief Global Bus Dev Off Aug 24, 2018 Option Exercise 576,365
MIKUEN SCOTT T Sr VP-General Counsel & Secy Aug 24, 2018 Option Exercise 413,690
GHAI RAHUL Sr. VP & Chief Financial Off. Aug 24, 2018 Option Exercise 153,273
GATTLE WILLIAM H President, Space and Intel Sys Aug 24, 2018 Option Exercise 206,812
FOX SHELDON J SVP, Operations and IT Aug 24, 2018 Option Exercise 475,326
DUFFY ROBERT L SVP-Human Resources Aug 24, 2018 Option Exercise 413,462
Brown William M Chairman, President, and CEO Aug 25, 2018 Option Exercise 5,808,050
FOX SHELDON J SVP, Operations and IT Aug 15, 2018 Option Exercise 2,131,074
FOX SHELDON J SVP, Operations and IT Aug 15, 2018 Sale 7,471,272
FOX SHELDON J SVP, Operations and IT Jun 01, 2018 Option Exercise 52,831
Taylor Todd A. VP, Principal Accting. Officer Jun 01, 2018 Option Exercise 53,900
MIKUEN SCOTT T Sr VP-General Counsel & Secy Jun 01, 2018 Option Exercise 26,568
GHAI RAHUL Sr. VP & Chief Financial Off. Jun 01, 2018 Option Exercise 161,241
DUFFY ROBERT L SVP-Human Resources Jun 01, 2018 Option Exercise 188,725
Young Christopher D. President, Communication Sys. May 29, 2018 Option Exercise 2,794,832
GHAI RAHUL Sr. VP & Chief Financial Off. May 06, 2018 Option Exercise 307,921
Taylor Todd A. VP, Principal Accting. Officer May 06, 2018 Option Exercise 196,290
Young Christopher D. President, Communication Sys. Mar 05, 2018 Option Exercise 381,793
MEHNERT DANA A SVP, Chief Global Bus Dev Off Mar 05, 2018 Option Exercise 2,916,864
MEHNERT DANA A SVP, Chief Global Bus Dev Off Mar 05, 2018 Sale 7,843,510
MIKUEN SCOTT T Sr VP-General Counsel & Secy Mar 02, 2018 Option Exercise 930,600
MIKUEN SCOTT T Sr VP-General Counsel & Secy Mar 02, 2018 Sale 3,023,680
FOX SHELDON J SVP, Operations and IT Feb 15, 2018 Sale 1,354,428
MIKUEN SCOTT T Sr VP-General Counsel & Secy Dec 15, 2017 Option Exercise 62,679
FOX SHELDON J SVP, Operations and IT Dec 15, 2017 Option Exercise 125,214
MIKUEN SCOTT T Sr VP-General Counsel & Secy Sep 12, 2017 Option Exercise 632,808
MIKUEN SCOTT T Sr VP-General Counsel & Secy Sep 12, 2017 Sale 1,677,710
MIKUEN SCOTT T Sr VP-General Counsel & Secy Sep 08, 2017 Sale 533,911
ZOISS EDWARD J President, Electronic Systems Aug 25, 2017 Option Exercise 84,959
MIKUEN SCOTT T Sr VP-General Counsel & Secy Aug 25, 2017 Option Exercise 379,442
MEHNERT DANA A SVP, Chief Global Bus Dev Off Aug 25, 2017 Option Exercise 466,435
GATTLE WILLIAM H President, Space and Intel Sys Aug 25, 2017 Option Exercise 93,454
FOX SHELDON J SVP, Operations and IT Aug 25, 2017 Option Exercise 436,041
DUFFY ROBERT L SVP-Human Resources Aug 25, 2017 Option Exercise 379,442
Brown William M Chairman, President, and CEO Aug 25, 2017 Option Exercise 1,704,437
FOX SHELDON J SVP, Integration & Engineering Aug 21, 2017 Option Exercise 1,996,299
FOX SHELDON J SVP, Integration & Engineering Aug 21, 2017 Sale 5,947,472
Young Christopher D. President, Communication Sys. Aug 10, 2017 Sale 484,057
DUFFY ROBERT L SVP-Human Resources May 31, 2017 Option Exercise 1,563,408
DUFFY ROBERT L SVP-Human Resources May 31, 2017 Sale 3,763,498
GHAI RAHUL Sr. VP & Chief Financial Off. May 06, 2017 Option Exercise 237,052
MIKUEN SCOTT T Sr VP-General Counsel & Secy Mar 10, 2017 Option Exercise 883,122
MIKUEN SCOTT T Sr VP-General Counsel & Secy Mar 10, 2017 Sale 2,260,026
Young Christopher D. President, Communication Sys. Mar 05, 2017 Option Exercise 273,499
ALBAUGH JAMES F Director Feb 09, 2017 Buy 104,988
DUFFY ROBERT L SVP-Human Resources Feb 08, 2017 Option Exercise 720,630
DUFFY ROBERT L SVP-Human Resources Feb 08, 2017 Sale 2,220,925
MEHNERT DANA A SVP, Chief Global Bus Dev Off Feb 03, 2017 Option Exercise 4,220,210
MEHNERT DANA A SVP, Chief Global Bus Dev Off Feb 03, 2017 Sale 10,401,216
MIKUEN SCOTT T Sr VP-General Counsel & Secy Dec 15, 2016 Option Exercise 73,395
FOX SHELDON J SVP, Integration & Engineering Dec 15, 2016 Option Exercise 146,580
ZOISS EDWARD J President, Electronic Systems Nov 03, 2016 Sale 175,193
GATTLE WILLIAM H President, Space and Intel Sys Sep 06, 2016 Option Exercise 51,485
GATTLE WILLIAM H President, Space and Intel Sys Sep 06, 2016 Sale 128,063
FOX SHELDON J SVP, Integration & Engineering Aug 26, 2016 Option Exercise 641,240
DUFFY ROBERT L SVP-Human Resources Aug 26, 2016 Option Exercise 500,619
ZOISS EDWARD J President, Electronic Systems Aug 26, 2016 Option Exercise 123,815
MIKUEN SCOTT T Sr VP-General Counsel & Secy Aug 26, 2016 Option Exercise 500,619
MEHNERT DANA A SVP, Chief Global Bus Dev Off Aug 26, 2016 Option Exercise 788,309
GATTLE WILLIAM H President, Space and Intel Sys Aug 26, 2016 Option Exercise 123,815
D'ALESSANDRO CARL D President, Critical Networks Aug 26, 2016 Option Exercise 12,536
D'ALESSANDRO CARL D President, Critical Networks Aug 26, 2016 Option Exercise 123,815
Brown William M Chairman, President, and CEO Aug 27, 2016 Option Exercise 2,221,765
MIKUEN SCOTT T Sr VP-General Counsel & Secy Aug 23, 2016 Option Exercise 57,544
Brown William M Chairman, President, and CEO Aug 23, 2016 Option Exercise 134,178
FOX SHELDON J SVP, Integration & Engineering Aug 08, 2016 Sale 1,575,634
FOX SHELDON J SVP, Integration & Engineering Aug 08, 2016 Option Exercise 620,208
FOX SHELDON J SVP, Integration & Engineering Aug 08, 2016 Sale 1,557,934
MEHNERT DANA A SVP, Chief Global Bus Dev Off Aug 04, 2016 Option Exercise 1,157,490
MEHNERT DANA A SVP, Chief Global Bus Dev Off Aug 04, 2016 Sale 2,376,591
MIKUEN SCOTT T Sr VP-General Counsel & Secy Aug 02, 2016 Option Exercise 354,286
MIKUEN SCOTT T Sr VP-General Counsel & Secy Aug 02, 2016 Sale 827,200
MEHNERT DANA A SVP, Chief Global Bus Dev Off Jun 10, 2016 Option Exercise 4,287
MEHNERT DANA A SVP, Chief Global Bus Dev Off Jun 10, 2016 Sale 8,200
MEHNERT DANA A SVP, Chief Global Bus Dev Off Jun 08, 2016 Option Exercise 282,942
MEHNERT DANA A SVP, Chief Global Bus Dev Off Jun 08, 2016 Sale 541,369
GHAI RAHUL Sr. VP & Chief Financial Off. May 06, 2016 Option Exercise 197,141
Young Christopher D. President, Communication Sys. Mar 05, 2016 Option Exercise 200,927
MIKUEN SCOTT T Sr VP-General Counsel & Secy Nov 16, 2015 Option Exercise 331,672
MIKUEN SCOTT T Sr VP-General Counsel & Secy Nov 16, 2015 Sale 704,000
ZOISS EDWARD J President, Electronic Systems Aug 28, 2015 Option Exercise 52,960
MIKUEN SCOTT T Sr VP-General Counsel & Secy Aug 28, 2015 Option Exercise 341,098
MEHNERT DANA A SVP, Chief Global Bus Dev Off Aug 28, 2015 Option Exercise 650,561
GATTLE WILLIAM H President, Space and Intel Sys Aug 28, 2015 Option Exercise 50,789
FOX SHELDON J SVP, Integration & Engineering Aug 28, 2015 Option Exercise 450,818
DUFFY ROBERT L SVP-Human Resources Aug 28, 2015 Option Exercise 333,189
D'ALESSANDRO CARL D President, Critical Networks Aug 28, 2015 Option Exercise 15,353
D'ALESSANDRO CARL D President, Critical Networks Aug 28, 2015 Option Exercise 49,005
Brown William M Chairman, President, and CEO Aug 28, 2015 Option Exercise 1,791,329
Brown William M Chairman, President, and CEO May 29, 2015 Option Exercise 15,448
Brown William M Chairman, President, and CEO Jul 20, 2015 Sale 15,844
DUFFY ROBERT L SVP-Human Resources Aug 02, 2015 Option Exercise 49,930
FOX SHELDON J Group Pres. - Govt. Comms. Sys Jun 15, 2015 Option Exercise 582,183
FOX SHELDON J Group Pres. - Govt. Comms. Sys Jun 15, 2015 Sale 925,120
MEHNERT DANA A Group Pres., RF Communications Jun 11, 2015 Option Exercise 1,706,448
MEHNERT DANA A Group Pres., RF Communications Jun 11, 2015 Sale 3,831,229
MIKUEN SCOTT T Sr VP-General Counsel & Secy Jun 01, 2015 Option Exercise 105,045
LOPEZ MIGUEL A Sr. VP & Chief Financial Off. Jun 01, 2015 Option Exercise 63,043
FOX SHELDON J Group Pres. - Govt. Comms. Sys Jun 01, 2015 Option Exercise 63,043
DUFFY ROBERT L SVP-Human Resources Jun 01, 2015 Option Exercise 63,043
SCHWARTZ LEWIS A VP, Principal Accting. Officer Apr 01, 2015 Sale 39,250
MORRIS JAMES D Group Pres., Int. Network Sol. Feb 01, 2015 Option Exercise 553,353
SCHWARTZ LEWIS A VP, Principal Accting. Officer Jan 02, 2015 Sale 36,075
SCHWARTZ LEWIS A VP, Principal Accting. Officer Nov 21, 2014 Option Exercise 1,744,845
SCHWARTZ LEWIS A VP, Principal Accting. Officer Nov 25, 2014 Option Exercise 11,248
SCHWARTZ LEWIS A VP, Principal Accting. Officer Nov 24, 2014 Option Exercise 49,512
SCHWARTZ LEWIS A VP, Principal Accting. Officer Nov 24, 2014 Sale 101,736
SCHWARTZ LEWIS A VP, Principal Accting. Officer Nov 21, 2014 Sale 3,288,580
SCHWARTZ LEWIS A VP, Principal Accting. Officer Nov 25, 2014 Sale 23,112
MEHNERT DANA A Group Pres., RF Communications Nov 01, 2014 Option Exercise 897,353
RICKARD DAVID B Director Oct 01, 2014 Option Exercise 115,424
RICKARD DAVID B Director Oct 01, 2014 Sale 280,486
SCHWARTZ LEWIS A VP, Principal Accting. Officer Oct 01, 2014 Option Exercise 891,752
SCHWARTZ LEWIS A VP, Principal Accting. Officer Oct 01, 2014 Sale 1,218,753
MIKUEN SCOTT T Sr VP-General Counsel & Secy Aug 26, 2014 Option Exercise 298,390
SCHWARTZ LEWIS A VP, Principal Accting. Officer Aug 22, 2014 Option Exercise 103,405
MIKUEN SCOTT T Sr VP-General Counsel & Secy Aug 22, 2014 Option Exercise 182,734
MEHNERT DANA A Group Pres., RF Communications Aug 22, 2014 Option Exercise 366,534
FOX SHELDON J Group Pres. - Govt. Comms. Sys Aug 22, 2014 Option Exercise 201,981
Brown William M Chairman, President, and CEO Aug 23, 2014 Option Exercise 2,904,931
DUFFY ROBERT L SVP-Human Resources Aug 02, 2014 Option Exercise 41,201
MEHNERT DANA A Group Pres., RF Communications Aug 01, 2014 Option Exercise 1,734,476
MEHNERT DANA A Group Pres., RF Communications Aug 01, 2014 Sale 2,310,851
SCHWARTZ LEWIS A VP, Principal Accting. Officer Jul 01, 2014 Sale 38,015
Brown William M Chairman, President, and CEO Jul 01, 2014 Option Exercise 946,428
SCHWARTZ LEWIS A VP, Principal Accting. Officer Apr 01, 2014 Sale 36,625
HAY LEWIS III Director Mar 05, 2014 Option Exercise 115,424
HAY LEWIS III Director Mar 05, 2014 Sale 315,474
STOFFEL JAMES C Director Mar 05, 2014 Option Exercise 14,251
STOFFEL JAMES C Director Mar 05, 2014 Sale 38,889
MIKUEN SCOTT T Sr VP-General Counsel & Secy Feb 19, 2014 Option Exercise 376,900
MIKUEN SCOTT T Sr VP-General Counsel & Secy Feb 18, 2014 Option Exercise 1,079,489
MIKUEN SCOTT T Sr VP-General Counsel & Secy Feb 19, 2014 Sale 733,400
MIKUEN SCOTT T Sr VP-General Counsel & Secy Feb 18, 2014 Sale 1,495,678
FOX SHELDON J Group Pres. - Govt. Comms. Sys Feb 07, 2014 Option Exercise 542,405
FOX SHELDON J Group Pres. - Govt. Comms. Sys Feb 07, 2014 Sale 686,760
MORRIS JAMES D Group Pres., Int. Network Sol. Feb 01, 2014 Option Exercise 571,431
SCHWARTZ LEWIS A VP, Principal Accting. Officer Jan 02, 2014 Sale 34,815
STOFFEL JAMES C Director Dec 12, 2013 Option Exercise 5,624
STOFFEL JAMES C Director Dec 13, 2013 Option Exercise 95,550
STOFFEL JAMES C Director Dec 13, 2013 Sale 230,000
STOFFEL JAMES C Director Dec 12, 2013 Sale 13,514
KAUFMAN STEPHEN P Director Dec 02, 2013 Option Exercise 115,424
KAUFMAN STEPHEN P Director Dec 02, 2013 Sale 272,621
MCARTHUR GARY L Sr. VP & Chief Financial Off. Nov 05, 2013 Option Exercise 3,700,708
MCARTHUR GARY L Sr. VP & Chief Financial Off. Nov 05, 2013 Sale 4,437,008
SCHWARTZ LEWIS A VP, Principal Accting. Officer Nov 04, 2013 Option Exercise 1,189,121
SCHWARTZ LEWIS A VP, Principal Accting. Officer Nov 04, 2013 Sale 1,439,566
RICKARD DAVID B Director Sep 24, 2013 Option Exercise 71,284
RICKARD DAVID B Director Sep 24, 2013 Sale 244,345
MIKUEN SCOTT T Sr VP-General Counsel & Secy Sep 12, 2013 Option Exercise 387,788
MIKUEN SCOTT T Sr VP-General Counsel & Secy Sep 12, 2013 Sale 643,657
KAUFMAN STEPHEN P Director Sep 11, 2013 Option Exercise 17,821
KAUFMAN STEPHEN P Director Sep 11, 2013 Sale 61,116
MIKUEN SCOTT T Sr VP-General Counsel & Secy Aug 23, 2013 Option Exercise 50,589
MIKUEN SCOTT T Sr VP-General Counsel & Secy Aug 26, 2013 Option Exercise 21,554
MCARTHUR GARY L Sr. VP & Chief Financial Off. Aug 26, 2013 Option Exercise 43,107
MCARTHUR GARY L Sr. VP & Chief Financial Off. Aug 23, 2013 Option Exercise 113,541
Brown William M President and CEO Aug 23, 2013 Option Exercise 709,447
SCHWARTZ LEWIS A VP, Principal Accting. Officer Aug 23, 2013 Option Exercise 55,888
MEHNERT DANA A Group Pres., RF Communications Aug 23, 2013 Option Exercise 174,556
FOX SHELDON J Group Pres. - Govt. Comms. Sys Aug 23, 2013 Option Exercise 81,581
MEHNERT DANA A Group Pres., RF Communications Aug 02, 2013 Option Exercise 256,347
MEHNERT DANA A Group Pres., RF Communications Aug 02, 2013 Sale 350,583
DUFFY ROBERT L SVP-Human Resources Aug 02, 2013 Option Exercise 34,386
SCHWARTZ LEWIS A VP, Principal Accting. Officer Jul 01, 2013 Sale 24,840
HAY LEWIS III Director May 16, 2013 Option Exercise 71,284
HAY LEWIS III Director May 16, 2013 Sale 211,400
FOX SHELDON J Group Pres. - Govt. Comms. Sys Apr 01, 2013 Option Exercise 39,018
FOX SHELDON J Group Pres. - Govt. Comms. Sys Apr 01, 2013 Sale 108,139
SCHWARTZ LEWIS A VP, Principal Accting. Officer Apr 01, 2013 Sale 23,145
DATTILO THOMAS A Director Feb 11, 2013 Option Exercise 133,245
DATTILO THOMAS A Director Feb 11, 2013 Sale 245,201
SCHWARTZ LEWIS A VP, Principal Accting. Officer Jan 02, 2013 Sale 24,935
FOX SHELDON J Group Pres. - Govt. Comms. Sys Jan 02, 2013 Option Exercise 66,640
FOX SHELDON J Group Pres. - Govt. Comms. Sys Jan 02, 2013 Sale 200,024
FOX SHELDON J Group Pres. - Govt. Comms. Sys Dec 19, 2012 Option Exercise 123,385
FOX SHELDON J Group Pres. - Govt. Comms. Sys Dec 19, 2012 Sale 148,800
MIKUEN SCOTT T VP-General Counsel & Secretary Dec 19, 2012 Option Exercise 623,319
MIKUEN SCOTT T VP-General Counsel & Secretary Dec 19, 2012 Sale 794,550
KATEN KAREN L Director Dec 10, 2012 Option Exercise 186,708
STOFFEL JAMES C Director Dec 10, 2012 Option Exercise 136,395
STOFFEL JAMES C Director Dec 10, 2012 Sale 414,344
KENNE LESLIE F Director Dec 10, 2012 Option Exercise 211,146
KENNE LESLIE F Director Dec 10, 2012 Sale 414,333
PEARSON DANIEL R Exec. VP and COO Nov 07, 2012 Option Exercise 3,187,066
PEARSON DANIEL R Exec. VP and COO Nov 07, 2012 Option Exercise 2,870,360
SCHWARTZ LEWIS A VP, Principal Accting. Officer Nov 01, 2012 Option Exercise 319,905
SCHWARTZ LEWIS A VP, Principal Accting. Officer Nov 01, 2012 Sale 353,316
MCARTHUR GARY L Sr. VP & Chief Financial Off. Sep 14, 2012 Option Exercise 1,358,520
MCARTHUR GARY L Sr. VP & Chief Financial Off. Sep 14, 2012 Sale 1,639,287
SCHWARTZ LEWIS A VP, Principal Accting. Officer Aug 28, 2012 Option Exercise 86,191
PEARSON DANIEL R Exec. VP and COO Aug 28, 2012 Option Exercise 86,191
MEHNERT DANA A Group Pres., RF Communications Aug 28, 2012 Option Exercise 196,070
FOX SHELDON J Group Pres. - Govt. Comms. Sys Aug 28, 2012 Option Exercise 103,401
SCHWARTZ LEWIS A VP, Principal Accting. Officer Aug 24, 2012 Option Exercise 108,136
PEARSON DANIEL R Exec. VP and COO Aug 26, 2012 Option Exercise 20,380
PEARSON DANIEL R Exec. VP and COO Aug 24, 2012 Option Exercise 235,768
MIKUEN SCOTT T VP-General Counsel & Secretary Aug 24, 2012 Option Exercise 78,031
MEHNERT DANA A Group Pres., RF Communications Aug 24, 2012 Option Exercise 359,072
MCARTHUR GARY L Sr. VP & Chief Financial Off. Aug 24, 2012 Option Exercise 284,950
FOX SHELDON J Group Pres. - Govt. Comms. Sys Aug 24, 2012 Option Exercise 103,901
RICKARD DAVID B Director Aug 22, 2012 Option Exercise 53,442
RICKARD DAVID B Director Aug 22, 2012 Sale 194,987
FOX SHELDON J Group Pres. - Govt. Comms. Sys Aug 20, 2012 Option Exercise 165,840
FOX SHELDON J Group Pres. - Govt. Comms. Sys Aug 20, 2012 Sale 185,778
MEHNERT DANA A Group Pres., RF Communications Aug 14, 2012 Option Exercise 82,732
MEHNERT DANA A Group Pres., RF Communications Aug 14, 2012 Sale 107,205
SCHWARTZ LEWIS A VP, Principal Accting. Officer Aug 06, 2012 Sale 21,670
SHUMAN JEFFREY S Sr. VP & Chief HR Officer Jul 02, 2012 Option Exercise 970,389
SHUMAN JEFFREY S Sr. VP & Chief HR Officer Jul 02, 2012 Sale 1,138,304
SHUMAN JEFFREY S Sr. VP & Chief HR Officer May 17, 2012 Sale 774,556
MIKUEN SCOTT T VP-General Counsel & Secretary May 07, 2012 Option Exercise 334,762
MIKUEN SCOTT T VP-General Counsel & Secretary May 07, 2012 Sale 387,655
SCHWARTZ LEWIS A VP, Principal Accting. Officer May 03, 2012 Sale 21,250
MCARTHUR GARY L Sr. VP & Chief Financial Off. Mar 14, 2012 Sale 525,000
FOX SHELDON J Group Pres. - Govt. Comms. Sys Mar 08, 2012 Option Exercise 100,397
FOX SHELDON J Group Pres. - Govt. Comms. Sys Mar 08, 2012 Sale 123,397
MCARTHUR GARY L Sr. VP & Chief Financial Off. Mar 02, 2012 Option Exercise 811,299
MCARTHUR GARY L Sr. VP & Chief Financial Off. Mar 02, 2012 Option Exercise 743,917
SCHWARTZ LEWIS A VP, Principal Accting. Officer Feb 08, 2012 Option Exercise 208,290
SCHWARTZ LEWIS A VP, Principal Accting. Officer Feb 08, 2012 Sale 272,808
HAY LEWIS III Director Jan 10, 2012 Option Exercise 53,442
HAY LEWIS III Director Dec 13, 2011 Option Exercise 66,464
HAY LEWIS III Director Dec 13, 2011 Sale 149,798
RICKARD DAVID B Director Nov 01, 2011 Sale 155,590
RICKARD DAVID B Director Oct 12, 2011 Option Exercise 67,310
SCHWARTZ LEWIS A VP, Principal Accting. Officer Aug 26, 2011 Option Exercise 51,824
PEARSON DANIEL R Exec. VP and COO Aug 26, 2011 Option Exercise 142,883
MIKUEN SCOTT T VP-General Counsel & Secretary Aug 26, 2011 Option Exercise 47,339
MEHNERT DANA A Group Pres., RF Communications Aug 26, 2011 Option Exercise 117,781
LANCE HOWARD L Chairman, President, and CEO Aug 26, 2011 Option Exercise 778,675
FOX SHELDON J Group Pres. - Govt. Comms. Sys Aug 26, 2011 Option Exercise 50,015
SHUMAN JEFFREY S VP-Human Resources Aug 26, 2011 Option Exercise 133,950
MCARTHUR GARY L Sr. VP & Chief Financial Off. Aug 26, 2011 Option Exercise 173,261
SHUMAN JEFFREY S VP-Human Resources Aug 22, 2011 Option Exercise 101,623
MCARTHUR GARY L Sr. VP & Chief Financial Off. Aug 22, 2011 Option Exercise 127,028
PEARSON DANIEL R Exec. VP and COO Aug 22, 2011 Option Exercise 114,343
MIKUEN SCOTT T VP-General Counsel & Secretary Aug 08, 2011 Option Exercise 35,995
MIKUEN SCOTT T VP-General Counsel & Secretary Aug 08, 2011 Sale 57,805
FOX SHELDON J Group Pres. - Govt. Comms. Sys May 20, 2011 Option Exercise 105,601
FOX SHELDON J Group Pres. - Govt. Comms. Sys May 20, 2011 Sale 230,097
SCHWARTZ LEWIS A VP, Principal Accting. Officer May 09, 2011 Sale 24,647
SCHWARTZ LEWIS A VP, Principal Accting. Officer Feb 09, 2011 Sale 98,000
PEARSON DANIEL R Exec. VP and COO Dec 13, 2010 Option Exercise 1,073,374
PEARSON DANIEL R Exec. VP and COO Dec 13, 2010 Sale 1,405,132
LANCE HOWARD L Chairman, President, and CEO Sep 09, 2010 Sale 2,150,500
LANCE HOWARD L Chairman, President, and CEO Sep 09, 2010 Sale 2,150,500
SHUMAN JEFFREY S VP-Human Resources Aug 27, 2010 Option Exercise 105,460
SHUMAN JEFFREY S VP-Human Resources Aug 27, 2010 Option Exercise 105,460
SCHWARTZ LEWIS A VP, Principal Accting. Officer Aug 27, 2010 Option Exercise 39,055
PEARSON DANIEL R Exec. VP and COO Aug 27, 2010 Option Exercise 82,053
MEHNERT DANA A Group Pres., RF Communications Aug 27, 2010 Option Exercise 55,731
MEHNERT DANA A Group Pres., RF Communications Aug 27, 2010 Option Exercise 55,731
MCARTHUR GARY L Sr. VP & Chief Financial Off. Aug 27, 2010 Option Exercise 113,305
MCARTHUR GARY L Sr. VP & Chief Financial Off. Aug 27, 2010 Option Exercise 113,305
LANCE HOWARD L Chairman, President, and CEO Aug 28, 2010 Option Exercise 597,694
LANCE HOWARD L Chairman, President, and CEO Aug 28, 2010 Option Exercise 597,694
HENRY ROBERT K Exec. Vice President Aug 27, 2010 Option Exercise 191,415
HENRY ROBERT K Exec. Vice President Aug 27, 2010 Option Exercise 191,415
FOX SHELDON J Group Pres. - Govt. Comms. Sys Aug 27, 2010 Option Exercise 36,139
FOX SHELDON J Group Pres. - Govt. Comms. Sys Aug 27, 2010 Option Exercise 36,139
CAVALLUCCI EUGENE S VP - General Counsel Aug 27, 2010 Option Exercise 87,883
CAVALLUCCI EUGENE S VP - General Counsel Aug 27, 2010 Option Exercise 87,883
MEHNERT DANA A Group Pres., RF Communications Aug 24, 2010 Option Exercise 58,351
MEHNERT DANA A Group Pres., RF Communications Aug 24, 2010 Option Exercise 58,351
SCHWARTZ LEWIS A VP, Principal Accting. Officer Aug 24, 2010 Option Exercise 46,015
SCHWARTZ LEWIS A VP, Principal Accting. Officer Aug 24, 2010 Option Exercise 46,015
MCARTHUR GARY L Sr. VP & Chief Financial Off. Aug 24, 2010 Option Exercise 92,073
MCARTHUR GARY L Sr. VP & Chief Financial Off. Aug 24, 2010 Option Exercise 92,073
KATEN KAREN L Director Aug 11, 2010 Option Exercise 181,254
KATEN KAREN L Director Aug 11, 2010 Sale 565,471